sensor_id;sensor_type;location;lat;lon;timestamp;P1;durP1;ratioP1;P2;durP2;ratioP2
31224;SDS011;17847;31.524;74.366;2024-01-25T00:01:01;202.60;;;79.97;;
31224;SDS011;17847;31.524;74.366;2024-01-25T00:03:30;184.65;;;77.28;;
31224;SDS011;17847;31.524;74.366;2024-01-25T00:06:00;194.48;;;78.95;;
31224;SDS011;17847;31.524;74.366;2024-01-25T00:08:29;195.38;;;76.38;;
31224;SDS011;17847;31.524;74.366;2024-01-25T00:10:59;189.00;;;77.50;;
31224;SDS011;17847;31.524;74.366;2024-01-25T00:13:28;203.93;;;80.50;;
31224;SDS011;17847;31.524;74.366;2024-01-25T00:15:57;191.85;;;79.28;;
31224;SDS011;17847;31.524;74.366;2024-01-25T00:18:27;193.43;;;80.63;;
31224;SDS011;17847;31.524;74.366;2024-01-25T00:20:58;195.55;;;79.53;;
31224;SDS011;17847;31.524;74.366;2024-01-25T00:23:27;195.77;;;82.85;;
31224;SDS011;17847;31.524;74.366;2024-01-25T00:25:56;210.02;;;83.60;;
31224;SDS011;17847;31.524;74.366;2024-01-25T00:28:28;186.43;;;81.28;;
31224;SDS011;17847;31.524;74.366;2024-01-25T00:30:57;182.18;;;77.00;;
31224;SDS011;17847;31.524;74.366;2024-01-25T00:33:26;190.80;;;80.40;;
31224;SDS011;17847;31.524;74.366;2024-01-25T00:35:56;199.35;;;82.72;;
31224;SDS011;17847;31.524;74.366;2024-01-25T00:38:26;193.27;;;80.97;;
31224;SDS011;17847;31.524;74.366;2024-01-25T00:40:55;194.43;;;79.18;;
31224;SDS011;17847;31.524;74.366;2024-01-25T00:43:25;206.50;;;81.35;;
31224;SDS011;17847;31.524;74.366;2024-01-25T00:45:55;182.93;;;76.18;;
31224;SDS011;17847;31.524;74.366;2024-01-25T00:48:25;179.00;;;73.93;;
31224;SDS011;17847;31.524;74.366;2024-01-25T00:50:54;179.20;;;73.05;;
31224;SDS011;17847;31.524;74.366;2024-01-25T00:53:24;180.30;;;74.22;;
31224;SDS011;17847;31.524;74.366;2024-01-25T00:55:53;161.32;;;65.70;;
31224;SDS011;17847;31.524;74.366;2024-01-25T00:58:23;169.60;;;67.97;;
31224;SDS011;17847;31.524;74.366;2024-01-25T01:00:53;158.20;;;63.95;;
31224;SDS011;17847;31.524;74.366;2024-01-25T01:03:22;144.05;;;60.28;;
31224;SDS011;17847;31.524;74.366;2024-01-25T01:05:52;130.07;;;57.42;;
31224;SDS011;17847;31.524;74.366;2024-01-25T01:08:22;137.95;;;58.80;;
31224;SDS011;17847;31.524;74.366;2024-01-25T01:10:52;152.15;;;62.38;;
31224;SDS011;17847;31.524;74.366;2024-01-25T01:13:21;144.32;;;58.97;;
31224;SDS011;17847;31.524;74.366;2024-01-25T01:15:50;121.72;;;55.28;;
31224;SDS011;17847;31.524;74.366;2024-01-25T01:18:19;126.32;;;53.20;;
31224;SDS011;17847;31.524;74.366;2024-01-25T01:20:49;133.30;;;56.47;;
31224;SDS011;17847;31.524;74.366;2024-01-25T01:23:18;116.68;;;52.40;;
31224;SDS011;17847;31.524;74.366;2024-01-25T01:25:48;117.00;;;51.00;;
31224;SDS011;17847;31.524;74.366;2024-01-25T01:28:17;109.28;;;46.47;;
31224;SDS011;17847;31.524;74.366;2024-01-25T01:30:46;106.10;;;46.92;;
31224;SDS011;17847;31.524;74.366;2024-01-25T01:33:16;92.50;;;39.97;;
31224;SDS011;17847;31.524;74.366;2024-01-25T01:35:45;86.38;;;40.60;;
31224;SDS011;17847;31.524;74.366;2024-01-25T01:38:14;94.28;;;40.03;;
31224;SDS011;17847;31.524;74.366;2024-01-25T01:40:44;92.47;;;39.75;;
31224;SDS011;17847;31.524;74.366;2024-01-25T01:43:21;86.32;;;37.63;;
31224;SDS011;17847;31.524;74.366;2024-01-25T01:45:51;91.82;;;38.38;;
31224;SDS011;17847;31.524;74.366;2024-01-25T01:48:22;89.53;;;37.80;;
31224;SDS011;17847;31.524;74.366;2024-01-25T01:50:51;86.68;;;37.42;;
31224;SDS011;17847;31.524;74.366;2024-01-25T01:53:21;95.97;;;38.42;;
31224;SDS011;17847;31.524;74.366;2024-01-25T01:55:50;90.68;;;40.15;;
31224;SDS011;17847;31.524;74.366;2024-01-25T01:58:20;89.90;;;37.72;;
31224;SDS011;17847;31.524;74.366;2024-01-25T02:00:52;91.13;;;37.70;;
31224;SDS011;17847;31.524;74.366;2024-01-25T02:03:24;101.00;;;37.60;;
31224;SDS011;17847;31.524;74.366;2024-01-25T02:05:54;88.32;;;37.25;;
31224;SDS011;17847;31.524;74.366;2024-01-25T02:08:24;97.53;;;38.65;;
31224;SDS011;17847;31.524;74.366;2024-01-25T02:10:55;90.28;;;36.92;;
31224;SDS011;17847;31.524;74.366;2024-01-25T02:13:24;100.72;;;39.22;;
31224;SDS011;17847;31.524;74.366;2024-01-25T02:15:54;100.47;;;38.88;;
31224;SDS011;17847;31.524;74.366;2024-01-25T02:18:23;104.78;;;38.53;;
31224;SDS011;17847;31.524;74.366;2024-01-25T02:20:54;106.95;;;39.20;;
31224;SDS011;17847;31.524;74.366;2024-01-25T02:23:24;108.50;;;38.03;;
31224;SDS011;17847;31.524;74.366;2024-01-25T02:25:53;98.82;;;37.88;;
31224;SDS011;17847;31.524;74.366;2024-01-25T02:28:22;99.35;;;37.58;;
31224;SDS011;17847;31.524;74.366;2024-01-25T02:30:51;101.25;;;38.30;;
31224;SDS011;17847;31.524;74.366;2024-01-25T02:33:21;104.38;;;37.08;;
31224;SDS011;17847;31.524;74.366;2024-01-25T02:35:50;97.53;;;38.63;;
31224;SDS011;17847;31.524;74.366;2024-01-25T02:38:19;96.75;;;37.45;;
31224;SDS011;17847;31.524;74.366;2024-01-25T02:40:48;106.53;;;37.35;;
31224;SDS011;17847;31.524;74.366;2024-01-25T02:43:18;98.70;;;37.85;;
31224;SDS011;17847;31.524;74.366;2024-01-25T02:45:47;97.45;;;37.78;;
31224;SDS011;17847;31.524;74.366;2024-01-25T02:48:17;99.57;;;38.33;;
31224;SDS011;17847;31.524;74.366;2024-01-25T02:50:46;99.72;;;37.10;;
31224;SDS011;17847;31.524;74.366;2024-01-25T02:53:16;101.55;;;39.63;;
31224;SDS011;17847;31.524;74.366;2024-01-25T02:55:45;101.53;;;39.97;;
31224;SDS011;17847;31.524;74.366;2024-01-25T02:58:15;109.95;;;41.47;;
31224;SDS011;17847;31.524;74.366;2024-01-25T03:00:44;106.97;;;39.40;;
31224;SDS011;17847;31.524;74.366;2024-01-25T03:03:15;109.57;;;41.13;;
31224;SDS011;17847;31.524;74.366;2024-01-25T03:05:45;120.65;;;42.08;;
31224;SDS011;17847;31.524;74.366;2024-01-25T03:08:14;116.53;;;42.28;;
31224;SDS011;17847;31.524;74.366;2024-01-25T03:10:43;96.68;;;38.25;;
31224;SDS011;17847;31.524;74.366;2024-01-25T03:13:12;102.85;;;41.70;;
31224;SDS011;17847;31.524;74.366;2024-01-25T03:15:43;95.82;;;35.85;;
31224;SDS011;17847;31.524;74.366;2024-01-25T03:18:12;105.47;;;37.85;;
31224;SDS011;17847;31.524;74.366;2024-01-25T03:20:43;99.85;;;36.88;;
31224;SDS011;17847;31.524;74.366;2024-01-25T03:23:12;100.15;;;38.60;;
31224;SDS011;17847;31.524;74.366;2024-01-25T03:25:42;98.80;;;39.83;;
31224;SDS011;17847;31.524;74.366;2024-01-25T03:28:11;95.32;;;38.58;;
31224;SDS011;17847;31.524;74.366;2024-01-25T03:30:44;86.97;;;37.33;;
31224;SDS011;17847;31.524;74.366;2024-01-25T03:33:14;90.25;;;37.70;;
31224;SDS011;17847;31.524;74.366;2024-01-25T03:35:44;108.15;;;40.75;;
31224;SDS011;17847;31.524;74.366;2024-01-25T03:38:13;108.25;;;40.10;;
31224;SDS011;17847;31.524;74.366;2024-01-25T03:40:42;107.57;;;39.60;;
31224;SDS011;17847;31.524;74.366;2024-01-25T03:43:12;102.38;;;40.22;;
31224;SDS011;17847;31.524;74.366;2024-01-25T03:45:46;100.35;;;38.95;;
31224;SDS011;17847;31.524;74.366;2024-01-25T03:48:16;100.13;;;40.30;;
31224;SDS011;17847;31.524;74.366;2024-01-25T03:50:45;100.88;;;38.95;;
31224;SDS011;17847;31.524;74.366;2024-01-25T03:53:15;119.47;;;42.88;;
31224;SDS011;17847;31.524;74.366;2024-01-25T03:55:44;105.50;;;42.03;;
31224;SDS011;17847;31.524;74.366;2024-01-25T03:58:13;106.70;;;42.70;;
31224;SDS011;17847;31.524;74.366;2024-01-25T04:00:43;103.00;;;41.38;;
31224;SDS011;17847;31.524;74.366;2024-01-25T04:03:13;108.50;;;42.25;;
31224;SDS011;17847;31.524;74.366;2024-01-25T04:05:43;104.55;;;41.95;;
31224;SDS011;17847;31.524;74.366;2024-01-25T04:08:12;109.25;;;43.00;;
31224;SDS011;17847;31.524;74.366;2024-01-25T04:10:44;109.93;;;42.85;;
31224;SDS011;17847;31.524;74.366;2024-01-25T04:13:14;109.97;;;42.78;;
31224;SDS011;17847;31.524;74.366;2024-01-25T04:15:43;115.50;;;41.47;;
31224;SDS011;17847;31.524;74.366;2024-01-25T04:18:13;103.60;;;41.45;;
31224;SDS011;17847;31.524;74.366;2024-01-25T04:20:42;102.25;;;41.63;;
31224;SDS011;17847;31.524;74.366;2024-01-25T04:23:12;102.28;;;41.10;;
31224;SDS011;17847;31.524;74.366;2024-01-25T04:25:41;98.10;;;38.47;;
31224;SDS011;17847;31.524;74.366;2024-01-25T04:28:11;101.30;;;40.28;;
31224;SDS011;17847;31.524;74.366;2024-01-25T04:30:40;90.03;;;37.20;;
31224;SDS011;17847;31.524;74.366;2024-01-25T04:33:10;89.38;;;36.80;;
31224;SDS011;17847;31.524;74.366;2024-01-25T04:35:39;81.50;;;33.65;;
31224;SDS011;17847;31.524;74.366;2024-01-25T04:38:08;81.57;;;34.72;;
31224;SDS011;17847;31.524;74.366;2024-01-25T04:40:38;86.22;;;35.30;;
31224;SDS011;17847;31.524;74.366;2024-01-25T04:43:07;80.03;;;33.85;;
31224;SDS011;17847;31.524;74.366;2024-01-25T04:45:37;76.38;;;32.90;;
31224;SDS011;17847;31.524;74.366;2024-01-25T04:48:06;71.40;;;32.90;;
31224;SDS011;17847;31.524;74.366;2024-01-25T04:50:35;73.00;;;31.67;;
31224;SDS011;17847;31.524;74.366;2024-01-25T04:53:10;70.00;;;32.45;;
31224;SDS011;17847;31.524;74.366;2024-01-25T04:55:40;74.97;;;33.85;;
31224;SDS011;17847;31.524;74.366;2024-01-25T04:58:09;75.88;;;33.65;;
31224;SDS011;17847;31.524;74.366;2024-01-25T05:00:39;84.60;;;33.35;;
31224;SDS011;17847;31.524;74.366;2024-01-25T05:03:11;81.60;;;33.67;;
31224;SDS011;17847;31.524;74.366;2024-01-25T05:05:41;68.88;;;32.42;;
31224;SDS011;17847;31.524;74.366;2024-01-25T05:08:10;72.65;;;32.65;;
31224;SDS011;17847;31.524;74.366;2024-01-25T05:10:39;68.43;;;31.10;;
31224;SDS011;17847;31.524;74.366;2024-01-25T05:13:09;73.80;;;33.00;;
31224;SDS011;17847;31.524;74.366;2024-01-25T05:15:38;67.38;;;32.25;;
31224;SDS011;17847;31.524;74.366;2024-01-25T05:18:07;70.07;;;31.20;;
31224;SDS011;17847;31.524;74.366;2024-01-25T05:20:37;73.82;;;34.67;;
31224;SDS011;17847;31.524;74.366;2024-01-25T05:23:07;74.20;;;33.70;;
31224;SDS011;17847;31.524;74.366;2024-01-25T05:25:36;78.95;;;34.58;;
31224;SDS011;17847;31.524;74.366;2024-01-25T05:28:05;70.45;;;33.35;;
31224;SDS011;17847;31.524;74.366;2024-01-25T05:30:34;68.70;;;33.05;;
31224;SDS011;17847;31.524;74.366;2024-01-25T05:33:04;65.65;;;31.00;;
31224;SDS011;17847;31.524;74.366;2024-01-25T05:35:34;64.70;;;31.90;;
31224;SDS011;17847;31.524;74.366;2024-01-25T05:38:03;69.35;;;31.25;;
31224;SDS011;17847;31.524;74.366;2024-01-25T05:40:33;66.90;;;32.25;;
31224;SDS011;17847;31.524;74.366;2024-01-25T05:43:03;69.03;;;31.02;;
31224;SDS011;17847;31.524;74.366;2024-01-25T05:45:32;72.97;;;32.90;;
31224;SDS011;17847;31.524;74.366;2024-01-25T05:48:02;66.47;;;30.95;;
31224;SDS011;17847;31.524;74.366;2024-01-25T05:50:31;70.18;;;33.05;;
31224;SDS011;17847;31.524;74.366;2024-01-25T05:53:01;72.43;;;32.20;;
31224;SDS011;17847;31.524;74.366;2024-01-25T05:55:30;68.88;;;32.28;;
31224;SDS011;17847;31.524;74.366;2024-01-25T05:58:00;87.90;;;35.22;;
31224;SDS011;17847;31.524;74.366;2024-01-25T06:00:29;74.30;;;34.15;;
31224;SDS011;17847;31.524;74.366;2024-01-25T06:02:58;74.10;;;34.30;;
31224;SDS011;17847;31.524;74.366;2024-01-25T06:05:28;76.78;;;36.60;;
31224;SDS011;17847;31.524;74.366;2024-01-25T06:07:57;90.15;;;39.80;;
31224;SDS011;17847;31.524;74.366;2024-01-25T06:10:27;80.78;;;37.75;;
31224;SDS011;17847;31.524;74.366;2024-01-25T06:12:56;72.70;;;34.63;;
31224;SDS011;17847;31.524;74.366;2024-01-25T06:15:26;71.93;;;35.67;;
31224;SDS011;17847;31.524;74.366;2024-01-25T06:17:55;72.30;;;34.40;;
31224;SDS011;17847;31.524;74.366;2024-01-25T06:20:24;66.00;;;32.20;;
31224;SDS011;17847;31.524;74.366;2024-01-25T06:22:54;60.65;;;32.08;;
31224;SDS011;17847;31.524;74.366;2024-01-25T06:25:23;67.88;;;32.97;;
31224;SDS011;17847;31.524;74.366;2024-01-25T06:27:52;64.35;;;30.67;;
31224;SDS011;17847;31.524;74.366;2024-01-25T06:30:21;66.97;;;32.40;;
31224;SDS011;17847;31.524;74.366;2024-01-25T06:32:51;76.85;;;33.42;;
31224;SDS011;17847;31.524;74.366;2024-01-25T06:35:20;65.55;;;33.05;;
31224;SDS011;17847;31.524;74.366;2024-01-25T06:37:50;64.75;;;33.17;;
31224;SDS011;17847;31.524;74.366;2024-01-25T06:40:19;72.55;;;33.65;;
31224;SDS011;17847;31.524;74.366;2024-01-25T06:42:48;65.00;;;32.75;;
31224;SDS011;17847;31.524;74.366;2024-01-25T06:45:18;62.67;;;32.20;;
31224;SDS011;17847;31.524;74.366;2024-01-25T06:47:47;60.53;;;30.83;;
31224;SDS011;17847;31.524;74.366;2024-01-25T06:50:16;57.47;;;30.27;;
31224;SDS011;17847;31.524;74.366;2024-01-25T06:52:46;58.25;;;32.03;;
31224;SDS011;17847;31.524;74.366;2024-01-25T06:55:16;58.78;;;29.15;;
31224;SDS011;17847;31.524;74.366;2024-01-25T06:57:45;62.53;;;29.92;;
31224;SDS011;17847;31.524;74.366;2024-01-25T07:00:15;57.22;;;29.33;;
31224;SDS011;17847;31.524;74.366;2024-01-25T07:02:44;59.83;;;30.35;;
31224;SDS011;17847;31.524;74.366;2024-01-25T07:05:13;62.05;;;30.55;;
31224;SDS011;17847;31.524;74.366;2024-01-25T07:07:43;60.25;;;31.63;;
31224;SDS011;17847;31.524;74.366;2024-01-25T07:10:13;58.95;;;32.67;;
31224;SDS011;17847;31.524;74.366;2024-01-25T07:12:42;58.70;;;30.23;;
31224;SDS011;17847;31.524;74.366;2024-01-25T07:15:11;62.28;;;32.08;;
31224;SDS011;17847;31.524;74.366;2024-01-25T07:17:40;56.33;;;30.40;;
31224;SDS011;17847;31.524;74.366;2024-01-25T07:20:10;62.13;;;30.20;;
31224;SDS011;17847;31.524;74.366;2024-01-25T07:22:40;54.33;;;30.08;;
31224;SDS011;17847;31.524;74.366;2024-01-25T07:25:10;57.33;;;31.75;;
31224;SDS011;17847;31.524;74.366;2024-01-25T07:27:39;57.28;;;31.00;;
31224;SDS011;17847;31.524;74.366;2024-01-25T07:30:12;58.55;;;32.97;;
31224;SDS011;17847;31.524;74.366;2024-01-25T07:32:42;57.90;;;31.48;;
31224;SDS011;17847;31.524;74.366;2024-01-25T07:35:12;58.08;;;30.95;;
31224;SDS011;17847;31.524;74.366;2024-01-25T07:37:42;63.50;;;32.60;;
31224;SDS011;17847;31.524;74.366;2024-01-25T07:40:11;62.65;;;32.53;;
31224;SDS011;17847;31.524;74.366;2024-01-25T07:42:40;62.65;;;32.90;;
31224;SDS011;17847;31.524;74.366;2024-01-25T07:45:10;57.05;;;31.17;;
31224;SDS011;17847;31.524;74.366;2024-01-25T07:47:41;55.33;;;32.53;;
31224;SDS011;17847;31.524;74.366;2024-01-25T07:50:13;59.72;;;33.08;;
31224;SDS011;17847;31.524;74.366;2024-01-25T07:52:42;61.60;;;32.55;;
31224;SDS011;17847;31.524;74.366;2024-01-25T07:55:11;60.55;;;33.55;;
31224;SDS011;17847;31.524;74.366;2024-01-25T07:57:41;60.90;;;32.70;;
31224;SDS011;17847;31.524;74.366;2024-01-25T08:00:11;58.22;;;32.30;;
31224;SDS011;17847;31.524;74.366;2024-01-25T08:02:40;59.72;;;34.00;;
31224;SDS011;17847;31.524;74.366;2024-01-25T08:05:10;63.13;;;34.10;;
31224;SDS011;17847;31.524;74.366;2024-01-25T08:07:40;65.25;;;34.33;;
31224;SDS011;17847;31.524;74.366;2024-01-25T08:10:09;65.20;;;35.10;;
31224;SDS011;17847;31.524;74.366;2024-01-25T08:12:38;62.40;;;36.30;;
31224;SDS011;17847;31.524;74.366;2024-01-25T08:15:14;72.28;;;36.83;;
31224;SDS011;17847;31.524;74.366;2024-01-25T08:17:44;67.97;;;36.03;;
31224;SDS011;17847;31.524;74.366;2024-01-25T08:20:13;71.22;;;37.47;;
31224;SDS011;17847;31.524;74.366;2024-01-25T08:22:43;73.25;;;39.25;;
31224;SDS011;17847;31.524;74.366;2024-01-25T08:25:12;96.38;;;46.10;;
31224;SDS011;17847;31.524;74.366;2024-01-25T08:27:42;101.60;;;50.60;;
31224;SDS011;17847;31.524;74.366;2024-01-25T08:30:11;98.15;;;50.60;;
31224;SDS011;17847;31.524;74.366;2024-01-25T08:32:41;110.10;;;52.05;;
31224;SDS011;17847;31.524;74.366;2024-01-25T08:35:10;102.93;;;52.95;;
31224;SDS011;17847;31.524;74.366;2024-01-25T08:37:40;114.97;;;56.88;;
31224;SDS011;17847;31.524;74.366;2024-01-25T08:40:09;123.95;;;58.17;;
31224;SDS011;17847;31.524;74.366;2024-01-25T08:42:39;129.00;;;60.10;;
31224;SDS011;17847;31.524;74.366;2024-01-25T08:45:08;149.35;;;68.07;;
31224;SDS011;17847;31.524;74.366;2024-01-25T08:47:40;141.70;;;68.70;;
31224;SDS011;17847;31.524;74.366;2024-01-25T08:50:10;179.27;;;77.68;;
31224;SDS011;17847;31.524;74.366;2024-01-25T08:52:41;192.70;;;92.38;;
31224;SDS011;17847;31.524;74.366;2024-01-25T08:55:10;208.98;;;96.72;;
31224;SDS011;17847;31.524;74.366;2024-01-25T08:57:39;224.27;;;102.78;;
31224;SDS011;17847;31.524;74.366;2024-01-25T09:00:09;238.25;;;107.30;;
31224;SDS011;17847;31.524;74.366;2024-01-25T09:02:38;244.93;;;109.95;;
31224;SDS011;17847;31.524;74.366;2024-01-25T09:05:08;248.57;;;110.40;;
31224;SDS011;17847;31.524;74.366;2024-01-25T09:07:38;258.05;;;113.03;;
31224;SDS011;17847;31.524;74.366;2024-01-25T09:10:07;242.45;;;111.18;;
31224;SDS011;17847;31.524;74.366;2024-01-25T09:12:37;239.75;;;113.07;;
31224;SDS011;17847;31.524;74.366;2024-01-25T09:15:07;264.58;;;116.15;;
31224;SDS011;17847;31.524;74.366;2024-01-25T09:17:37;271.98;;;123.65;;
31224;SDS011;17847;31.524;74.366;2024-01-25T09:20:07;282.67;;;123.40;;
31224;SDS011;17847;31.524;74.366;2024-01-25T09:22:37;294.25;;;126.90;;
31224;SDS011;17847;31.524;74.366;2024-01-25T09:25:06;285.60;;;126.10;;
31224;SDS011;17847;31.524;74.366;2024-01-25T09:27:36;282.15;;;127.38;;
31224;SDS011;17847;31.524;74.366;2024-01-25T09:30:07;278.60;;;127.97;;
31224;SDS011;17847;31.524;74.366;2024-01-25T09:32:36;286.80;;;127.32;;
31224;SDS011;17847;31.524;74.366;2024-01-25T09:35:06;297.15;;;128.23;;
31224;SDS011;17847;31.524;74.366;2024-01-25T09:37:36;286.13;;;126.38;;
31224;SDS011;17847;31.524;74.366;2024-01-25T09:40:06;274.63;;;123.72;;
31224;SDS011;17847;31.524;74.366;2024-01-25T09:42:36;254.32;;;115.13;;
31224;SDS011;17847;31.524;74.366;2024-01-25T09:45:06;268.10;;;118.85;;
31224;SDS011;17847;31.524;74.366;2024-01-25T09:47:36;261.98;;;119.03;;
31224;SDS011;17847;31.524;74.366;2024-01-25T09:50:05;266.42;;;117.45;;
31224;SDS011;17847;31.524;74.366;2024-01-25T09:52:37;246.50;;;113.57;;
31224;SDS011;17847;31.524;74.366;2024-01-25T09:55:07;256.00;;;110.63;;
31224;SDS011;17847;31.524;74.366;2024-01-25T09:57:41;235.52;;;107.18;;
31224;SDS011;17847;31.524;74.366;2024-01-25T10:00:16;207.48;;;92.45;;
31224;SDS011;17847;31.524;74.366;2024-01-25T10:02:49;225.13;;;97.15;;
31224;SDS011;17847;31.524;74.366;2024-01-25T10:05:19;210.25;;;94.70;;
31224;SDS011;17847;31.524;74.366;2024-01-25T10:07:48;223.40;;;96.70;;
31224;SDS011;17847;31.524;74.366;2024-01-25T10:10:17;203.70;;;90.00;;
31224;SDS011;17847;31.524;74.366;2024-01-25T10:12:47;216.25;;;95.55;;
31224;SDS011;17847;31.524;74.366;2024-01-25T10:15:16;217.25;;;98.63;;
31224;SDS011;17847;31.524;74.366;2024-01-25T10:17:45;223.13;;;101.53;;
31224;SDS011;17847;31.524;74.366;2024-01-25T10:20:32;226.80;;;102.63;;
31224;SDS011;17847;31.524;74.366;2024-01-25T10:23:03;226.63;;;106.38;;
31224;SDS011;17847;31.524;74.366;2024-01-25T10:25:36;235.98;;;109.68;;
31224;SDS011;17847;31.524;74.366;2024-01-25T10:28:06;235.07;;;110.97;;
31224;SDS011;17847;31.524;74.366;2024-01-25T10:30:36;228.70;;;109.53;;
31224;SDS011;17847;31.524;74.366;2024-01-25T10:33:06;247.98;;;109.25;;
31224;SDS011;17847;31.524;74.366;2024-01-25T10:35:38;242.65;;;110.95;;
31224;SDS011;17847;31.524;74.366;2024-01-25T10:38:13;243.70;;;109.63;;
31224;SDS011;17847;31.524;74.366;2024-01-25T10:40:43;245.60;;;110.82;;
31224;SDS011;17847;31.524;74.366;2024-01-25T10:43:15;239.38;;;110.57;;
31224;SDS011;17847;31.524;74.366;2024-01-25T10:45:45;235.82;;;108.78;;
31224;SDS011;17847;31.524;74.366;2024-01-25T10:48:15;260.27;;;117.28;;
31224;SDS011;17847;31.524;74.366;2024-01-25T10:50:44;242.80;;;111.45;;
31224;SDS011;17847;31.524;74.366;2024-01-25T10:53:16;217.40;;;105.10;;
31224;SDS011;17847;31.524;74.366;2024-01-25T10:55:46;239.15;;;107.65;;
31224;SDS011;17847;31.524;74.366;2024-01-25T10:58:15;235.65;;;103.57;;
31224;SDS011;17847;31.524;74.366;2024-01-25T11:00:52;223.27;;;103.65;;
31224;SDS011;17847;31.524;74.366;2024-01-25T11:03:27;229.13;;;104.18;;
31224;SDS011;17847;31.524;74.366;2024-01-25T11:06:08;223.73;;;102.63;;
31224;SDS011;17847;31.524;74.366;2024-01-25T11:08:39;220.88;;;104.03;;
31224;SDS011;17847;31.524;74.366;2024-01-25T11:11:13;234.73;;;104.43;;
31224;SDS011;17847;31.524;74.366;2024-01-25T11:13:43;236.38;;;106.20;;
31224;SDS011;17847;31.524;74.366;2024-01-25T11:16:16;248.10;;;108.03;;
31224;SDS011;17847;31.524;74.366;2024-01-25T11:18:51;234.40;;;102.65;;
31224;SDS011;17847;31.524;74.366;2024-01-25T11:24:17;246.68;;;106.25;;
31224;SDS011;17847;31.524;74.366;2024-01-25T11:26:54;235.57;;;107.22;;
31224;SDS011;17847;31.524;74.366;2024-01-25T11:29:24;240.60;;;106.78;;
31224;SDS011;17847;31.524;74.366;2024-01-25T11:31:55;240.25;;;107.82;;
31224;SDS011;17847;31.524;74.366;2024-01-25T11:34:25;241.43;;;105.20;;
31224;SDS011;17847;31.524;74.366;2024-01-25T11:36:54;233.95;;;102.60;;
31224;SDS011;17847;31.524;74.366;2024-01-25T11:39:25;227.55;;;104.35;;
31224;SDS011;17847;31.524;74.366;2024-01-25T11:41:55;233.55;;;103.90;;
31224;SDS011;17847;31.524;74.366;2024-01-25T11:44:27;246.07;;;104.32;;
31224;SDS011;17847;31.524;74.366;2024-01-25T11:46:56;247.68;;;104.88;;
31224;SDS011;17847;31.524;74.366;2024-01-25T11:49:26;251.32;;;105.80;;
31224;SDS011;17847;31.524;74.366;2024-01-25T11:51:55;238.75;;;105.18;;
31224;SDS011;17847;31.524;74.366;2024-01-25T11:54:27;253.10;;;104.65;;
31224;SDS011;17847;31.524;74.366;2024-01-25T11:56:56;256.33;;;103.00;;
31224;SDS011;17847;31.524;74.366;2024-01-25T11:59:25;243.13;;;105.90;;
31224;SDS011;17847;31.524;74.366;2024-01-25T12:01:55;261.70;;;105.15;;
31224;SDS011;17847;31.524;74.366;2024-01-25T12:04:25;264.50;;;110.32;;
31224;SDS011;17847;31.524;74.366;2024-01-25T12:06:56;243.50;;;104.55;;
31224;SDS011;17847;31.524;74.366;2024-01-25T12:09:25;257.10;;;107.25;;
31224;SDS011;17847;31.524;74.366;2024-01-25T12:11:55;251.82;;;106.15;;
31224;SDS011;17847;31.524;74.366;2024-01-25T12:14:24;254.20;;;107.90;;
31224;SDS011;17847;31.524;74.366;2024-01-25T12:16:55;248.75;;;106.80;;
31224;SDS011;17847;31.524;74.366;2024-01-25T12:19:28;263.48;;;107.25;;
31224;SDS011;17847;31.524;74.366;2024-01-25T12:21:58;275.35;;;110.20;;
31224;SDS011;17847;31.524;74.366;2024-01-25T12:24:27;246.85;;;102.28;;
31224;SDS011;17847;31.524;74.366;2024-01-25T12:26:56;223.95;;;98.43;;
31224;SDS011;17847;31.524;74.366;2024-01-25T12:29:25;215.25;;;94.90;;
31224;SDS011;17847;31.524;74.366;2024-01-25T12:31:55;187.60;;;87.22;;
31224;SDS011;17847;31.524;74.366;2024-01-25T12:34:24;175.38;;;79.00;;
31224;SDS011;17847;31.524;74.366;2024-01-25T12:36:53;165.32;;;77.43;;
31224;SDS011;17847;31.524;74.366;2024-01-25T12:39:24;177.38;;;79.40;;
31224;SDS011;17847;31.524;74.366;2024-01-25T12:41:53;172.15;;;77.65;;
31224;SDS011;17847;31.524;74.366;2024-01-25T12:44:22;167.00;;;75.75;;
31224;SDS011;17847;31.524;74.366;2024-01-25T12:46:52;151.27;;;72.35;;
31224;SDS011;17847;31.524;74.366;2024-01-25T12:49:21;145.20;;;68.10;;
31224;SDS011;17847;31.524;74.366;2024-01-25T12:51:51;138.85;;;66.70;;
31224;SDS011;17847;31.524;74.366;2024-01-25T12:54:20;133.85;;;67.10;;
31224;SDS011;17847;31.524;74.366;2024-01-25T12:56:50;137.60;;;65.22;;
31224;SDS011;17847;31.524;74.366;2024-01-25T12:59:19;128.13;;;67.20;;
31224;SDS011;17847;31.524;74.366;2024-01-25T13:01:49;133.32;;;66.50;;
31224;SDS011;17847;31.524;74.366;2024-01-25T13:04:18;138.50;;;65.65;;
31224;SDS011;17847;31.524;74.366;2024-01-25T13:06:50;121.95;;;62.85;;
31224;SDS011;17847;31.524;74.366;2024-01-25T13:09:22;139.05;;;62.95;;
31224;SDS011;17847;31.524;74.366;2024-01-25T13:11:52;139.70;;;65.07;;
31224;SDS011;17847;31.524;74.366;2024-01-25T13:14:21;132.27;;;62.92;;
31224;SDS011;17847;31.524;74.366;2024-01-25T13:16:50;125.35;;;66.47;;
31224;SDS011;17847;31.524;74.366;2024-01-25T13:19:20;135.63;;;66.75;;
31224;SDS011;17847;31.524;74.366;2024-01-25T13:21:50;151.48;;;68.95;;
31224;SDS011;17847;31.524;74.366;2024-01-25T13:24:20;137.18;;;70.13;;
31224;SDS011;17847;31.524;74.366;2024-01-25T13:26:49;137.27;;;68.32;;
31224;SDS011;17847;31.524;74.366;2024-01-25T13:29:18;150.27;;;72.05;;
31224;SDS011;17847;31.524;74.366;2024-01-25T13:31:51;148.90;;;72.50;;
31224;SDS011;17847;31.524;74.366;2024-01-25T13:34:21;153.90;;;71.50;;
31224;SDS011;17847;31.524;74.366;2024-01-25T13:36:50;156.85;;;73.00;;
31224;SDS011;17847;31.524;74.366;2024-01-25T13:39:20;155.43;;;71.65;;
31224;SDS011;17847;31.524;74.366;2024-01-25T13:41:50;152.00;;;73.05;;
31224;SDS011;17847;31.524;74.366;2024-01-25T13:44:19;152.38;;;71.35;;
31224;SDS011;17847;31.524;74.366;2024-01-25T13:46:48;152.05;;;72.20;;
31224;SDS011;17847;31.524;74.366;2024-01-25T13:49:18;167.05;;;75.05;;
31224;SDS011;17847;31.524;74.366;2024-01-25T13:51:47;167.73;;;71.53;;
31224;SDS011;17847;31.524;74.366;2024-01-25T13:54:17;160.57;;;69.45;;
31224;SDS011;17847;31.524;74.366;2024-01-25T13:56:46;163.13;;;67.72;;
31224;SDS011;17847;31.524;74.366;2024-01-25T13:59:15;150.18;;;68.65;;
31224;SDS011;17847;31.524;74.366;2024-01-25T14:01:44;157.65;;;68.30;;
31224;SDS011;17847;31.524;74.366;2024-01-25T14:04:14;150.77;;;63.95;;
31224;SDS011;17847;31.524;74.366;2024-01-25T14:06:43;159.68;;;66.45;;
31224;SDS011;17847;31.524;74.366;2024-01-25T14:09:12;145.10;;;64.90;;
31224;SDS011;17847;31.524;74.366;2024-01-25T14:11:42;152.43;;;63.10;;
31224;SDS011;17847;31.524;74.366;2024-01-25T14:14:11;143.95;;;62.22;;
31224;SDS011;17847;31.524;74.366;2024-01-25T14:16:41;143.55;;;62.70;;